Terminal Aerodrome Forecast
Issued by NWS

Home | Current Version | Previous Version | Graphics & Text | Print | Product List | Glossary On
Versions: 1 2 3 4 5 6 7 8 9 10 11 12 13 14 15 16 17 18 19
000
FTUS43 KFGF 090500
TAFBJI
TAF
KBJI 090520Z 0906/1006 VRB06KT P6SM BKN060
     FM090900 VRB06KT P6SM SCT080
     FM091500 33007KT P6SM SCT050
     FM100000 VRB06KT P6SM SKC=

USA.gov is the U.S. government's official web portal to all federal, state and local government web resources and services.